Aviation Digital Data Service (ADDS)

Output produced by METARs form (0502 UTC 21 September 2017)
found at http://www.aviationweather.gov/adds/metars/
 
TAF HLLB 201700Z 2018/2118 35012KT 9999 FEW023 SCT070 
     BECMG 2104/2106 VRB02KT 8000 NSC 
     BECMG 2112/2114 34012KT 
       
TAF HLTD 201700Z 2018/2118 08015KT 9999 FEW030 
       
TAF HLGT 201700Z 2018/2118 VRB02KT CAVOK 
       
TAF HLKF 201700Z 2018/2118 VRB02KT CAVOK 
     BECMG 2112/2114 06010KT